createdAt,value
2023-02-14T00:02:06.553Z,61.65
2023-02-14T00:04:34.787Z,61.52
2023-02-14T00:07:02.338Z,61.20
2023-02-14T00:09:29.957Z,61.84
2023-02-14T00:11:57.464Z,62.73
2023-02-14T00:14:44.074Z,61.68
2023-02-14T00:17:11.609Z,62.76
2023-02-14T00:19:39.219Z,61.61
2023-02-14T00:22:06.822Z,61.18
2023-02-14T00:24:34.413Z,61.82
2023-02-14T00:27:02.026Z,61.37
2023-02-14T00:29:33.026Z,61.44
2023-02-14T00:32:00.734Z,61.49
2023-02-14T00:34:28.999Z,60.82
2023-02-14T00:36:56.532Z,61.09
2023-02-14T00:39:24.030Z,60.15
2023-02-14T00:41:51.700Z,60.33
2023-02-14T00:44:20.406Z,60.57
2023-02-14T00:46:49.267Z,60.44
2023-02-14T00:49:16.785Z,60.24
2023-02-14T00:51:44.304Z,59.68
2023-02-14T00:54:11.801Z,59.97
2023-02-14T00:56:39.325Z,59.77
2023-02-14T00:59:06.870Z,60.22
2023-02-14T01:01:34.416Z,60.24
2023-02-14T01:04:03.302Z,60.27
2023-02-14T01:06:30.881Z,59.81
2023-02-14T01:08:58.697Z,60.23
2023-02-14T01:11:27.758Z,59.99
2023-02-14T01:13:58.259Z,59.47
2023-02-14T01:16:27.597Z,59.54
2023-02-14T01:18:55.456Z,59.38
2023-02-14T01:21:26.012Z,59.81
2023-02-14T01:23:56.622Z,60.14
2023-02-14T01:26:26.054Z,59.46
2023-02-14T01:28:53.801Z,59.29
2023-02-14T01:31:23.762Z,60.04
2023-02-14T01:33:52.155Z,60.12
2023-02-14T01:36:22.067Z,60.38
2023-02-14T01:38:53.318Z,61.01
2023-02-14T01:41:21.606Z,61.30
2023-02-14T01:43:55.709Z,60.82
2023-02-14T01:46:23.644Z,60.89
2023-02-14T01:48:51.982Z,61.74
2023-02-14T01:51:21.023Z,60.39
2023-02-14T01:53:49.736Z,60.51
2023-02-14T01:56:22.462Z,60.85
2023-02-14T01:58:56.117Z,61.21
2023-02-14T02:01:24.567Z,60.18
2023-02-14T02:03:55.347Z,60.87
2023-02-14T02:06:27.061Z,61.14
2023-02-14T02:09:04.345Z,61.55
2023-02-14T02:11:33.288Z,60.35
2023-02-14T02:14:00.827Z,61.36
2023-02-14T02:16:48.960Z,60.76
2023-02-14T02:19:49.767Z,60.78
2023-02-14T02:22:47.463Z,60.92
2023-02-14T02:25:30.383Z,60.68
2023-02-14T02:28:19.796Z,61.11
2023-02-14T02:31:14.872Z,60.31
2023-02-14T02:34:14.896Z,60.34
2023-02-14T02:37:11.652Z,61.05
2023-02-14T02:39:54.383Z,60.96
2023-02-14T02:42:35.013Z,60.62
2023-02-14T02:45:12.060Z,60.77
2023-02-14T02:47:45.383Z,61.00
2023-02-14T02:50:41.164Z,61.05
2023-02-14T02:53:18.482Z,60.68
2023-02-14T02:56:10.369Z,60.92
2023-02-14T02:58:41.019Z,61.43
2023-02-14T03:01:12.531Z,60.88
2023-02-14T03:03:59.742Z,61.27
2023-02-14T03:06:27.223Z,60.84
2023-02-14T03:08:56.000Z,61.74
2023-02-14T03:11:25.939Z,60.98
2023-02-14T03:14:21.352Z,61.43
2023-02-14T03:17:00.084Z,61.75
2023-02-14T03:19:55.547Z,61.12
2023-02-14T03:22:32.966Z,61.69
2023-02-14T03:25:09.197Z,61.86
2023-02-14T03:27:42.501Z,61.41
2023-02-14T03:30:18.802Z,61.81
2023-02-14T03:32:51.411Z,61.86
2023-02-14T03:35:24.882Z,61.43
2023-02-14T03:37:57.939Z,61.61
2023-02-14T03:40:32.063Z,61.02
2023-02-14T03:43:05.128Z,61.28
2023-02-14T03:45:36.398Z,61.17
2023-02-14T03:48:08.878Z,61.13
2023-02-14T03:50:38.952Z,61.60
2023-02-14T03:53:09.901Z,62.36
2023-02-14T03:55:42.737Z,62.36
2023-02-14T03:58:17.059Z,61.19
2023-02-14T04:00:48.519Z,62.31
2023-02-14T04:03:18.685Z,61.35
2023-02-14T04:05:52.161Z,61.31
2023-02-14T04:08:23.753Z,61.04
2023-02-14T04:10:53.352Z,61.15
2023-02-14T04:13:21.008Z,61.80
2023-02-14T04:15:48.773Z,61.88
2023-02-14T04:18:45.539Z,61.07
2023-02-14T04:21:13.042Z,60.84
2023-02-14T04:23:40.550Z,61.59
2023-02-14T04:26:09.353Z,61.00
2023-02-14T04:28:36.953Z,61.85
2023-02-14T04:31:06.606Z,61.75
2023-02-14T04:33:35.086Z,60.68
2023-02-14T04:36:02.751Z,61.38
2023-02-14T04:38:30.196Z,61.58
2023-02-14T04:40:57.899Z,61.63
2023-02-14T04:43:26.992Z,62.59
2023-02-14T04:45:54.431Z,61.97
2023-02-14T04:48:21.940Z,62.71
2023-02-14T04:50:52.763Z,62.06
2023-02-14T04:53:20.635Z,62.67
2023-02-14T04:55:50.270Z,61.97
2023-02-14T04:58:18.041Z,61.44
2023-02-14T05:00:46.910Z,62.72
2023-02-14T05:03:14.444Z,61.56
2023-02-14T05:05:41.932Z,61.54
2023-02-14T05:08:09.526Z,62.06
2023-02-14T05:10:37.007Z,61.97
2023-02-14T05:13:04.577Z,62.46
2023-02-14T05:15:33.693Z,61.81
2023-02-14T05:18:02.869Z,62.12
2023-02-14T05:20:30.511Z,61.75
2023-02-14T05:22:59.888Z,62.37
2023-02-14T05:25:27.355Z,61.72
2023-02-14T05:27:54.873Z,61.47
2023-02-14T05:30:26.528Z,62.08
2023-02-14T05:32:54.906Z,62.42
2023-02-14T05:35:24.071Z,62.65
2023-02-14T05:37:51.591Z,62.84
2023-02-14T05:40:19.533Z,62.57
2023-02-14T05:42:47.043Z,62.25
2023-02-14T05:45:14.649Z,62.95
2023-02-14T05:47:42.318Z,62.63
2023-02-14T05:50:10.680Z,62.17
2023-02-14T05:52:39.562Z,63.01
2023-02-14T05:55:08.381Z,62.55
2023-02-14T05:57:36.068Z,63.23
2023-02-14T06:00:05.445Z,62.99
2023-02-14T06:02:33.120Z,62.22
2023-02-14T06:05:00.660Z,62.67
2023-02-14T06:07:28.120Z,63.28
2023-02-14T06:09:57.119Z,63.21
2023-02-14T06:12:24.661Z,63.12
2023-02-14T06:14:52.254Z,62.91
2023-02-14T06:17:19.736Z,63.49
2023-02-14T06:19:48.525Z,63.38
2023-02-14T06:22:16.110Z,63.42
2023-02-14T06:24:43.578Z,63.36
2023-02-14T06:27:12.367Z,63.80
2023-02-14T06:29:39.818Z,63.60
2023-02-14T06:32:07.502Z,63.66
2023-02-14T06:34:35.434Z,63.02
2023-02-14T06:37:02.977Z,63.33
2023-02-14T06:39:30.678Z,63.79
2023-02-14T06:41:58.206Z,63.07
2023-02-14T06:44:27.059Z,63.02
2023-02-14T06:46:54.536Z,63.83
2023-02-14T06:49:22.212Z,63.62
2023-02-14T06:51:49.660Z,63.67
2023-02-14T06:54:17.270Z,63.88
2023-02-14T06:56:44.912Z,64.10
2023-02-14T06:59:12.408Z,64.11
2023-02-14T07:01:41.274Z,64.26
2023-02-14T07:04:08.856Z,64.21
2023-02-14T07:06:36.872Z,63.96
2023-02-14T07:09:04.583Z,64.80
2023-02-14T07:11:32.031Z,64.39
2023-02-14T07:13:59.556Z,64.65
2023-02-14T07:16:27.060Z,64.04
2023-02-14T07:18:55.966Z,64.08
2023-02-14T07:21:23.431Z,63.64
2023-02-14T07:23:50.885Z,64.34
2023-02-14T07:26:18.895Z,63.85
2023-02-14T07:28:46.549Z,64.30
2023-02-14T07:31:14.245Z,63.83
2023-02-14T07:33:41.890Z,63.75
2023-02-14T07:36:11.741Z,64.83
2023-02-14T07:38:39.388Z,64.12
2023-02-14T07:41:07.140Z,63.72
2023-02-14T07:43:40.510Z,62.65
2023-02-14T07:46:08.440Z,62.73
2023-02-14T07:48:36.005Z,63.64
2023-02-14T07:51:03.785Z,62.90
2023-02-14T07:53:32.748Z,63.08
2023-02-14T07:56:00.314Z,62.08
2023-02-14T07:58:27.882Z,61.74
2023-02-14T08:00:55.950Z,62.75
2023-02-14T08:03:23.450Z,62.35
2023-02-14T08:05:56.922Z,61.24
2023-02-14T08:08:26.213Z,62.46
2023-02-14T08:10:55.075Z,62.27
2023-02-14T08:13:22.735Z,61.29
2023-02-14T08:16:06.036Z,61.92
2023-02-14T08:18:35.838Z,60.89
2023-02-14T08:21:04.140Z,61.03
2023-02-14T08:23:31.709Z,61.06
2023-02-14T08:26:00.853Z,60.99
2023-02-14T08:28:29.279Z,61.64
2023-02-14T08:30:57.197Z,60.27
2023-02-14T08:33:24.703Z,60.06
2023-02-14T08:35:53.026Z,60.91
2023-02-14T08:38:20.682Z,60.94
2023-02-14T08:40:48.334Z,60.30
2023-02-14T08:43:17.155Z,60.66
2023-02-14T08:45:44.910Z,60.30
2023-02-14T08:48:13.648Z,60.12
2023-02-14T08:50:41.634Z,60.73
2023-02-14T08:53:10.428Z,60.14
2023-02-14T08:55:39.136Z,60.33
2023-02-14T08:58:08.606Z,60.59
2023-02-14T09:00:37.487Z,60.02
2023-02-14T09:03:14.852Z,60.11
2023-02-14T09:05:43.689Z,59.49
2023-02-14T09:08:11.231Z,59.86
2023-02-14T09:10:38.782Z,59.87
2023-02-14T09:13:06.364Z,59.99
2023-02-14T09:15:43.407Z,59.36
2023-02-14T09:18:10.958Z,59.00
2023-02-14T09:20:46.462Z,59.70
2023-02-14T09:23:13.959Z,58.87
2023-02-14T09:25:46.615Z,59.69
2023-02-14T09:28:23.560Z,58.93
2023-02-14T09:30:54.454Z,59.38
2023-02-14T09:33:22.412Z,58.61
2023-02-14T09:35:50.009Z,58.26
2023-02-14T09:38:17.475Z,58.89
2023-02-14T09:40:45.661Z,58.38
2023-02-14T09:43:22.116Z,57.92
2023-02-14T09:45:55.380Z,57.73
2023-02-14T09:48:30.371Z,57.67
2023-02-14T09:51:03.119Z,57.32
2023-02-14T09:53:34.158Z,57.32
2023-02-14T09:56:14.434Z,56.92
2023-02-14T09:58:50.555Z,57.49
2023-02-14T10:01:23.855Z,56.84
2023-02-14T10:04:07.507Z,56.99
2023-02-14T10:06:49.120Z,56.36
2023-02-14T10:09:41.176Z,56.69
2023-02-14T10:12:15.536Z,56.81
2023-02-14T10:14:43.816Z,56.47
2023-02-14T10:17:17.752Z,56.14
2023-02-14T10:19:49.737Z,56.21
2023-02-14T10:22:20.247Z,55.89
2023-02-14T10:24:53.442Z,55.73
2023-02-14T10:27:31.062Z,55.95
2023-02-14T10:29:58.833Z,54.77
2023-02-14T10:32:32.828Z,55.47
2023-02-14T10:35:06.860Z,55.43
2023-02-14T10:37:53.128Z,54.49
2023-02-14T10:40:42.163Z,53.70
2023-02-14T10:43:20.383Z,54.17
2023-02-14T10:46:01.378Z,54.86
2023-02-14T10:48:39.739Z,53.92
2023-02-14T10:51:16.363Z,53.35
2023-02-14T10:53:54.802Z,54.21
2023-02-14T10:56:27.862Z,53.21
2023-02-14T10:58:57.445Z,53.23
2023-02-14T11:01:26.101Z,53.61
2023-02-14T11:04:03.622Z,53.11
2023-02-14T11:06:31.323Z,53.41
2023-02-14T11:08:59.412Z,53.42
2023-02-14T11:11:31.585Z,52.62
2023-02-14T11:13:59.366Z,52.30
2023-02-14T11:16:31.963Z,52.17
2023-02-14T11:19:21.037Z,52.62
2023-02-14T11:21:50.529Z,51.62
2023-02-14T11:24:20.269Z,52.39
2023-02-14T11:26:49.474Z,51.62
2023-02-14T11:29:25.792Z,50.85
2023-02-14T11:31:53.614Z,51.87
2023-02-14T11:34:32.223Z,51.63
2023-02-14T11:37:00.125Z,51.80
2023-02-14T11:39:31.616Z,51.80
2023-02-14T11:42:03.973Z,51.94
2023-02-14T11:44:33.158Z,51.77
2023-02-14T11:47:21.258Z,52.46
2023-02-14T11:49:58.405Z,52.06
2023-02-14T11:52:29.574Z,51.89
2023-02-14T11:54:58.583Z,50.71
2023-02-14T11:57:32.330Z,51.71
2023-02-14T12:00:05.244Z,51.98
2023-02-14T12:02:38.933Z,52.90
2023-02-14T12:05:20.243Z,52.98
2023-02-14T12:07:49.851Z,51.48
2023-02-14T12:10:21.755Z,50.38
2023-02-14T12:12:51.587Z,50.86
2023-02-14T12:15:26.367Z,50.27
2023-02-14T12:18:01.497Z,51.46
2023-02-14T12:20:40.389Z,50.91
2023-02-14T12:23:16.156Z,50.37
2023-02-14T12:25:49.346Z,51.60
2023-02-14T12:28:21.542Z,52.14
2023-02-14T12:30:50.298Z,49.82
2023-02-14T12:33:21.637Z,50.19
2023-02-14T12:36:01.523Z,49.92
2023-02-14T12:38:40.916Z,49.46
2023-02-14T12:41:20.664Z,49.67
2023-02-14T12:43:50.630Z,49.30
2023-02-14T12:46:30.397Z,48.44
2023-02-14T12:49:22.448Z,49.49
2023-02-14T12:51:58.822Z,48.44
2023-02-14T12:54:43.484Z,49.54
2023-02-14T12:57:23.379Z,48.31
2023-02-14T13:00:04.332Z,49.46
2023-02-14T13:02:53.500Z,49.31
2023-02-14T13:05:25.116Z,49.62
2023-02-14T13:08:07.024Z,50.55
2023-02-14T13:10:48.808Z,50.64
2023-02-14T13:13:23.674Z,48.98
2023-02-14T13:15:59.674Z,47.37
2023-02-14T13:18:36.864Z,49.40
2023-02-14T13:21:07.396Z,49.60
2023-02-14T13:23:41.076Z,47.75
2023-02-14T13:26:12.710Z,49.13
2023-02-14T13:28:46.385Z,47.50
2023-02-14T13:31:15.047Z,47.65
2023-02-14T13:33:46.064Z,46.70
2023-02-14T13:36:15.416Z,47.70
2023-02-14T13:38:48.992Z,48.53
2023-02-14T13:41:17.593Z,50.12
2023-02-14T13:43:54.877Z,49.05
2023-02-14T13:46:38.626Z,47.88
2023-02-14T13:49:24.789Z,49.66
2023-02-14T13:51:54.880Z,49.38
2023-02-14T13:54:32.587Z,47.02
2023-02-14T13:57:01.420Z,47.19
2023-02-14T13:59:31.944Z,49.35
2023-02-14T14:02:34.993Z,47.17
2023-02-14T14:05:22.464Z,47.37
2023-02-14T14:08:33.950Z,45.84
2023-02-14T14:11:04.438Z,47.60
2023-02-14T14:14:02.069Z,47.43
2023-02-14T14:16:33.137Z,46.48
2023-02-14T14:19:04.600Z,46.93
2023-02-14T14:21:34.635Z,45.20
2023-02-14T14:24:15.935Z,45.68
2023-02-14T14:26:47.521Z,46.53
2023-02-14T14:29:20.624Z,48.71
2023-02-14T14:31:55.198Z,47.10
2023-02-14T14:34:25.574Z,48.44
2023-02-14T14:37:03.081Z,46.97
2023-02-14T14:39:32.267Z,45.80
2023-02-14T14:42:09.639Z,46.89
2023-02-14T14:44:46.106Z,46.12
2023-02-14T14:47:18.541Z,46.81
2023-02-14T14:49:46.434Z,48.39
2023-02-14T14:52:27.257Z,46.44
2023-02-14T14:54:54.890Z,47.32
2023-02-14T14:57:23.856Z,47.63
2023-02-14T14:59:51.556Z,47.29
2023-02-14T15:02:23.894Z,46.57
2023-02-14T15:04:51.514Z,48.04
2023-02-14T15:07:21.107Z,49.03
2023-02-14T15:09:48.685Z,50.11
2023-02-14T15:12:39.189Z,46.81
2023-02-14T15:15:10.920Z,48.84
2023-02-14T15:17:40.065Z,49.66
2023-02-14T15:20:11.194Z,48.14
2023-02-14T15:22:44.164Z,49.33
2023-02-14T15:25:14.610Z,48.64
2023-02-14T15:27:43.164Z,50.42
2023-02-14T15:30:25.097Z,51.34
2023-02-14T15:32:54.463Z,52.02
2023-02-14T15:35:25.984Z,52.03
2023-02-14T15:37:54.652Z,50.00
2023-02-14T15:40:26.332Z,50.25
2023-02-14T15:42:56.558Z,51.44
2023-02-14T15:45:31.606Z,51.83
2023-02-14T15:48:00.927Z,51.93
2023-02-14T15:50:31.255Z,52.37
2023-02-14T15:53:04.806Z,52.06
2023-02-14T15:55:33.412Z,52.87
2023-02-14T15:58:03.777Z,53.68
2023-02-14T16:00:33.442Z,53.50
2023-02-14T16:03:05.733Z,53.38
2023-02-14T16:05:33.168Z,53.95
2023-02-14T16:08:03.766Z,54.28
2023-02-14T16:10:33.464Z,53.71
2023-02-14T16:13:02.954Z,55.13
2023-02-14T16:15:33.526Z,53.95
2023-02-14T16:18:06.940Z,55.13
2023-02-14T16:20:41.286Z,55.51
2023-02-14T16:23:17.472Z,55.51
2023-02-14T16:25:45.480Z,55.74
2023-02-14T16:28:13.929Z,55.37
2023-02-14T16:30:44.288Z,56.78
2023-02-14T16:33:17.416Z,56.38
2023-02-14T16:35:45.775Z,56.69
2023-02-14T16:38:16.095Z,56.32
2023-02-14T16:40:46.001Z,56.77
2023-02-14T16:43:15.253Z,56.60
2023-02-14T16:45:44.646Z,56.86
2023-02-14T16:48:12.226Z,57.30
2023-02-14T16:50:41.261Z,57.26
2023-02-14T16:53:15.304Z,57.12
2023-02-14T16:55:42.820Z,56.96
2023-02-14T16:58:10.340Z,57.28
2023-02-14T17:00:39.403Z,57.25
2023-02-14T17:03:08.498Z,56.91
2023-02-14T17:05:36.586Z,57.10
2023-02-14T17:08:05.727Z,56.48
2023-02-14T17:10:34.458Z,56.92
2023-02-14T17:13:03.376Z,57.19
2023-02-14T17:15:32.697Z,57.03
2023-02-14T17:18:03.794Z,56.86
2023-02-14T17:20:32.908Z,57.07
2023-02-14T17:23:00.427Z,57.38
2023-02-14T17:25:27.882Z,57.23
2023-02-14T17:27:56.342Z,57.16
2023-02-14T17:30:24.401Z,56.73
2023-02-14T17:32:51.909Z,57.03
2023-02-14T17:35:19.856Z,57.74
2023-02-14T17:37:49.354Z,57.57
2023-02-14T17:40:16.865Z,58.11
2023-02-14T17:42:45.121Z,57.68
2023-02-14T17:45:12.712Z,58.25
2023-02-14T17:47:43.209Z,58.36
2023-02-14T17:50:11.278Z,58.04
2023-02-14T17:52:38.813Z,58.14
2023-02-14T17:55:09.027Z,58.28
2023-02-14T17:57:36.663Z,58.38
2023-02-14T18:00:05.848Z,58.12
2023-02-14T18:02:33.627Z,58.48
2023-02-14T18:05:01.249Z,58.30
2023-02-14T18:07:28.885Z,58.23
2023-02-14T18:09:56.401Z,58.48
2023-02-14T18:12:25.311Z,58.13
2023-02-14T18:14:55.147Z,58.59
2023-02-14T18:17:22.674Z,58.54
2023-02-14T18:19:50.201Z,58.60
2023-02-14T18:22:17.733Z,57.97
2023-02-14T18:24:45.203Z,58.39
2023-02-14T18:27:15.736Z,58.99
2023-02-14T18:29:44.596Z,58.71
2023-02-14T18:32:12.058Z,57.97
2023-02-14T18:34:39.590Z,58.58
2023-02-14T18:37:07.082Z,58.89
2023-02-14T18:39:34.723Z,59.26
2023-02-14T18:42:02.206Z,58.71
2023-02-14T18:44:33.279Z,59.17
2023-02-14T18:47:08.987Z,58.96
2023-02-14T18:49:36.517Z,57.99
2023-02-14T18:52:04.870Z,57.56
2023-02-14T18:54:32.328Z,57.16
2023-02-14T18:56:59.791Z,57.48
2023-02-14T18:59:27.236Z,58.16
2023-02-14T19:01:54.695Z,57.45
2023-02-14T19:04:23.537Z,57.21
2023-02-14T19:06:51.038Z,56.78
2023-02-14T19:09:19.026Z,57.12
2023-02-14T19:11:47.031Z,57.17
2023-02-14T19:14:14.592Z,57.19
2023-02-14T19:16:49.985Z,57.19
2023-02-14T19:19:18.196Z,57.18
2023-02-14T19:21:46.999Z,57.36
2023-02-14T19:24:16.310Z,58.03
2023-02-14T19:26:44.506Z,57.56
2023-02-14T19:29:14.450Z,57.50
2023-02-14T19:31:43.686Z,58.07
2023-02-14T19:34:17.496Z,57.95
2023-02-14T19:36:44.984Z,57.85
2023-02-14T19:39:14.745Z,58.73
2023-02-14T19:41:42.357Z,58.56
2023-02-14T19:44:13.646Z,58.19
2023-02-14T19:46:42.767Z,58.62
2023-02-14T19:49:14.289Z,58.71
2023-02-14T19:51:42.507Z,58.93
2023-02-14T19:54:10.580Z,58.37
2023-02-14T19:56:41.675Z,58.98
2023-02-14T19:59:10.248Z,58.59
2023-02-14T20:01:41.269Z,58.68
2023-02-14T20:04:12.003Z,58.81
2023-02-14T20:06:39.481Z,58.38
2023-02-14T20:09:08.377Z,58.26
2023-02-14T20:11:39.262Z,57.51
2023-02-14T20:14:09.537Z,57.42
2023-02-14T20:16:38.159Z,56.42
2023-02-14T20:19:07.861Z,57.68
2023-02-14T20:21:35.705Z,57.02
2023-02-14T20:24:05.332Z,56.85
2023-02-14T20:26:35.162Z,56.79
2023-02-14T20:29:05.870Z,56.24
2023-02-14T20:31:35.080Z,55.74
2023-02-14T20:34:02.962Z,55.97
2023-02-14T20:36:30.574Z,56.21
2023-02-14T20:38:59.654Z,56.26
2023-02-14T20:41:27.851Z,56.95
2023-02-14T20:43:55.787Z,56.29
2023-02-14T20:46:23.813Z,56.30
2023-02-14T20:48:54.046Z,56.48
2023-02-14T20:51:22.403Z,57.41
2023-02-14T20:53:49.845Z,57.66
2023-02-14T20:56:18.011Z,57.00
2023-02-14T20:58:45.506Z,57.14
2023-02-14T21:01:15.213Z,56.54
2023-02-14T21:03:46.535Z,57.84
2023-02-14T21:06:16.018Z,57.15
2023-02-14T21:08:44.351Z,57.08
2023-02-14T21:11:14.856Z,56.95
2023-02-14T21:13:42.364Z,57.10
2023-02-14T21:16:11.633Z,57.64
2023-02-14T21:18:39.824Z,57.06
2023-02-14T21:21:09.275Z,56.88
2023-02-14T21:23:38.047Z,57.96
2023-02-14T21:26:05.573Z,57.56
2023-02-14T21:28:33.384Z,57.68
2023-02-14T21:31:04.968Z,58.34
2023-02-14T21:33:33.299Z,58.12
2023-02-14T21:36:06.782Z,58.56
2023-02-14T21:38:34.316Z,58.73
2023-02-14T21:41:05.067Z,59.10
2023-02-14T21:43:34.722Z,58.21
2023-02-14T21:46:05.026Z,58.93
2023-02-14T21:48:50.332Z,58.10
2023-02-14T21:51:18.005Z,58.69
2023-02-14T21:53:46.049Z,59.05
2023-02-14T21:56:19.575Z,59.60
2023-02-14T21:58:47.889Z,59.58
2023-02-14T22:01:16.574Z,59.53
2023-02-14T22:03:44.438Z,58.94
2023-02-14T22:06:13.069Z,59.94
2023-02-14T22:08:41.300Z,60.13
2023-02-14T22:11:09.980Z,59.25
2023-02-14T22:13:39.169Z,60.02
2023-02-14T22:16:08.303Z,59.93
2023-02-14T22:18:35.952Z,59.47
2023-02-14T22:21:04.852Z,59.15
2023-02-14T22:23:33.052Z,58.23
2023-02-14T22:26:09.574Z,59.43
2023-02-14T22:28:37.072Z,58.96
2023-02-14T22:31:06.285Z,58.73
2023-02-14T22:33:34.001Z,57.91
2023-02-14T22:36:02.268Z,57.80
2023-02-14T22:38:30.052Z,57.46
2023-02-14T22:40:57.761Z,57.59
2023-02-14T22:43:25.364Z,58.10
2023-02-14T22:45:52.842Z,57.71
2023-02-14T22:48:21.661Z,57.24
2023-02-14T22:50:49.161Z,57.56
2023-02-14T22:53:16.660Z,57.19
2023-02-14T22:55:44.270Z,57.87
2023-02-14T22:58:11.743Z,57.70
2023-02-14T23:00:39.240Z,58.03
2023-02-14T23:03:06.833Z,57.05
2023-02-14T23:05:35.712Z,56.89
2023-02-14T23:08:03.222Z,56.64
2023-02-14T23:10:30.711Z,56.87
2023-02-14T23:13:15.882Z,57.02
2023-02-14T23:16:01.212Z,56.55
2023-02-14T23:18:46.937Z,57.25
2023-02-14T23:21:33.234Z,56.76
2023-02-14T23:24:00.773Z,56.46
2023-02-14T23:26:28.272Z,56.57
2023-02-14T23:28:55.780Z,56.16
2023-02-14T23:31:23.382Z,55.88
2023-02-14T23:33:51.984Z,56.92
2023-02-14T23:36:20.792Z,55.94
2023-02-14T23:38:52.663Z,56.59
2023-02-14T23:41:37.810Z,56.25
2023-02-14T23:44:05.521Z,56.47
2023-02-14T23:46:32.995Z,57.04
2023-02-14T23:49:00.484Z,55.78
2023-02-14T23:51:29.268Z,56.49
2023-02-14T23:53:56.734Z,56.34
2023-02-14T23:56:24.642Z,55.37
2023-02-14T23:58:52.102Z,55.58
